x

Hi-a389 Tabs V (42047) Weather Station

3:00am - Wed 22nd Feb 2017 All times are CST. -6 hours from GMT.

  • Wind
    16mph, 18mph gusts
  • Sea Temp 71°f
  • Air Temp 66°f
  • Sea Pressure 1011.7mb
  • Hi-a389 Tabs V
  • Hi-a389 Tabs V

More Historic Weather Station data

Upgrade to MSW Pro to gain access to the past 30 days of data for over 8000 Wavebouys and Weather Stations around the globe.

Join Pro

Comparision Forecast

View Surf forecast
   
Wed 02/22 3:00am 16 18 mph 1011.7mb 71f 66f
2:00am 13 16 mph 1012mb 71f 66f
12:00am 13 18 mph 1012.8mb 71f 66f
Tue 02/21 5:00pm 22 27 mph 1011.8mb 71f 64f
3:00pm 22 29 mph 1011.2mb 71f 63f
1:00pm 25 29 mph 1011.6mb 72f 66f
11:00am 27 34 mph 1013.1mb 72f 68f
6:00am 13 18 mph 1014.6mb 71f 63f
5:00am 11 16 mph 1015.2mb 71f 62f
4:00am 11 13 mph 1015.7mb 71f 62f
3:00am 11
mph
1015.7mb 71f 62f
2:00am 4 7 mph 1016mb 71f 61f
1:00am 4 7 mph 1016.4mb 71f 61f
12:00am 2 4 mph 1016.6mb 71f 61f
Mon 02/20 5:00pm 20 25 mph 1014.1mb 71f 63f
3:00pm 25 31 mph 1014.1mb 71f 64f
2:00pm 27 36 mph 1014.1mb 71f 62f
1:00pm 34 43 mph 1015.4mb 71f 60f
12:00pm 7 9 mph 1014.5mb 71f 69f
11:00am 9 13 mph 1015.5mb 71f 69f
10:00am 11 13 mph 1015.2mb 71f 70f
9:00am 13 16 mph 1014.8mb 72f 70f
8:00am 16 18 mph 1014.1mb 72f 70f
7:00am 22 25 mph 1013.3mb 72f 69f
6:00am 25 29 mph 1011.8mb 72f 69f
5:00am 25 29 mph 1012.3mb 72f 69f
4:00am 25 29 mph 1011.5mb 72f 69f
3:00am 22 29 mph 1011.2mb 72f 69f
1:00am 22 27 mph 1013.2mb 72f 69f
Sun 02/19 11:00pm 25 31 mph 1012.4mb 72f 69f
5:00pm 18 20 mph 1012.5mb 72f 70f
4:00pm 18 20 mph 1012.4mb 72f 70f
3:00pm 18 20 mph 1012.8mb 72f 70f
2:00pm 16 18 mph 1013.2mb 72f 69f
12:00pm 16 18 mph 1014.8mb 71f 69f
11:00am 16 20 mph 1014.9mb 71f 69f
10:00am 18 20 mph 1015.2mb 71f 69f
9:00am 18 22 mph 1014.7mb 71f 69f
7:00am 16 20 mph 1013mb 71f 68f
6:00am 16 20 mph 1012.3mb 71f 68f